Latest Weather Observations for PORTABLE QFRI (Inglewood)

IDQ60801

Issued at 5:32 am EST Wednesday 18 July 2018 (issued every 10 minutes, with the page automatically refreshed every 10 minutes)

About weather observations | Map of weather stations | Latest weather observations for QLD | Other Formats
Station Details ID: 250073 Name: PORTABLE QFRI (INGLEWOOD) Lat: -28.42 Lon: 151.10 Height: 286.0 m
Data from the previous 72 hours. | See also: Recent months for locations in Queensland
Date/Time
EST
Temp
°C
App
Temp
°C
Dew
Point
°C
Rel
Hum
%
Delta-T
°C
Wind Press
QNH
hPa
Press
MSL
hPa
Rain since
9am
mm
Dir  Spd
km/h
Gust
km/h
Spd
kts
Gust
kts
18/05:20am -1.1 -4.3 -3.7 82 0.8 NNE 4 6 2 3 - - 0.0
18/05:10am -1.2 -4.5 -4.2 80 0.9 N 4 6 2 3 - - 0.0
18/05:00am -1.1 -4.4 -4.3 79 1.0 NNW 4 6 2 3 - - 0.0
18/04:50am -1.0 -4.2 -3.9 81 0.9 NNW 4 6 2 3 - - 0.0
18/04:40am -0.7 -3.9 -3.5 81 0.9 NNW 4 4 2 2 - - 0.0
18/04:30am -0.2 -2.6 -3.2 80 1.0 CALM 0 0 0 0 - - 0.0
18/04:20am 0.1 -2.3 -3.0 80 1.1 CALM 0 0 0 0 - - 0.0
18/04:10am 0.4 -2.0 -2.9 78 1.2 CALM 0 0 0 0 - - 0.0
18/04:00am 0.8 -1.5 -2.4 79 1.2 CALM 0 2 0 1 - - 0.0
18/03:50am 1.1 -1.6 -2.5 77 1.3 ENE 2 4 1 2 - - 0.0
18/03:40am 1.2 -1.9 -2.4 77 1.3 ENE 4 6 2 3 - - 0.0
18/03:30am 1.4 -2.1 -2.5 75 1.4 E 6 6 3 3 - - 0.0
18/03:20am 1.5 -2.5 -2.5 75 1.4 ENE 9 9 5 5 - - 0.0
18/03:10am 1.8 -2.3 -2.8 71 1.6 E 9 9 5 5 - - 0.0
18/03:00am 1.9 -2.2 -2.8 71 1.6 ENE 9 11 5 6 - - 0.0
18/02:50am 2.2 -1.4 -3.3 67 1.9 ENE 6 7 3 4 - - 0.0
18/02:40am 2.3 -1.3 -3.5 65 2.0 ENE 6 7 3 4 - - 0.0
18/02:30am 1.6 -2.6 -3.8 67 1.9 ENE 9 11 5 6 - - 0.0
18/02:20am 1.2 -3.2 -2.7 75 1.4 E 11 11 6 6 - - 0.0
18/02:10am 1.5 -2.6 -2.9 72 1.6 E 9 11 5 6 - - 0.0
18/02:00am 1.7 -2.0 -2.6 73 1.5 E 7 7 4 4 - - 0.0
18/01:50am 2.2 -0.9 -2.8 69 1.7 ENE 4 6 2 3 - - 0.0
18/01:40am 2.6 -0.5 -3.0 66 1.9 NE 4 4 2 2 - - 0.0
18/01:30am 2.7 -0.8 -3.0 66 2.0 ENE 6 6 3 3 - - 0.0
18/01:20am 2.7 -0.4 -2.9 66 2.0 NE 4 6 2 3 - - 0.0
18/01:10am 2.8 -0.7 -2.7 67 1.9 ENE 6 7 3 4 - - 0.0
18/01:00am 2.6 -0.9 -3.0 66 1.9 ENE 6 6 3 3 - - 0.0
18/12:50am 2.4 -0.7 -2.5 70 1.7 NE 4 6 2 3 - - 0.0
18/12:40am 2.4 -0.7 -2.6 69 1.8 NE 4 4 2 2 - - 0.0
18/12:30am 1.9 -1.1 -2.2 74 1.4 NE 4 4 2 2 - - 0.0
18/12:20am 1.8 -1.2 -2.0 76 1.3 NE 4 6 2 3 - - 0.0
18/12:10am 2.2 -0.4 -1.4 77 1.3 NE 2 4 1 2 - - 0.0
18/12:00am 2.6 -0.3 -1.3 75 1.4 NE 4 4 2 2 - - 0.0
 
Date/Time
EST
Temp
°C
App
Temp
°C
Dew
Point
°C
Rel
Hum
%
Delta-T
°C
Wind Press
QNH
hPa
Press
MSL
hPa
Rain since
9am
mm
Dir  Spd
km/h
Gust
km/h
Spd
kts
Gust
kts
17/11:50pm 3.0 0.0 -2.1 69 1.8 NE 4 6 2 3 - - 0.0
17/11:40pm 3.4 0.0 -2.2 67 2.0 ENE 6 7 3 4 - - 0.0
17/11:30pm 2.8 -0.2 -2.0 71 1.7 NE 4 6 2 3 - - 0.0
17/11:20pm 2.9 -0.1 -1.9 71 1.7 NE 4 4 2 2 - - 0.0
17/11:10pm 3.1 0.1 -1.8 70 1.8 ENE 4 4 2 2 - - 0.0
17/11:00pm 3.6 0.7 -1.4 70 1.8 ENE 4 6 2 3 - - 0.0
17/10:50pm 4.3 1.0 -1.2 67 2.1 ENE 6 6 3 3 - - 0.0
17/10:40pm 4.6 1.4 -0.8 68 2.0 ENE 6 6 3 3 - - 0.0
17/10:30pm 4.4 1.6 -0.7 69 1.9 E 4 4 2 2 - - 0.0
17/10:20pm 4.3 1.4 -1.3 67 2.1 ENE 4 6 2 3 - - 0.0
17/10:10pm 4.5 1.1 -0.7 69 2.0 E 7 7 4 4 - - 0.0
17/10:00pm 4.7 1.3 -0.6 68 2.0 E 7 7 4 4 - - 0.0
17/09:50pm 4.7 1.2 -1.3 65 2.2 E 7 7 4 4 - - 0.0
17/09:40pm 4.1 0.7 -0.6 71 1.8 E 7 7 4 4 - - 0.0
17/09:30pm 4.6 1.2 -0.5 69 1.9 E 7 7 4 4 - - 0.0
17/09:20pm 4.9 2.0 -1.2 64 2.3 E 4 6 2 3 - - 0.0
17/09:10pm 4.3 1.8 -0.8 69 1.9 ENE 2 4 1 2 - - 0.0
17/09:00pm 4.7 2.6 -0.7 68 2.0 CALM 0 2 0 1 - - 0.0
17/08:50pm 5.0 2.5 -0.9 65 2.2 ENE 2 2 1 1 - - 0.0
17/08:40pm 5.3 3.3 -0.4 66 2.2 CALM 0 2 0 1 - - 0.0
17/08:30pm 6.1 3.6 -1.0 60 2.7 NE 2 2 1 1 - - 0.0
17/08:20pm 6.4 4.0 -0.6 61 2.7 NNE 2 4 1 2 - - 0.0
17/08:10pm 6.7 4.3 -0.2 61 2.7 NNE 2 4 1 2 - - 0.0
17/08:00pm 7.4 5.5 0.4 61 2.8 CALM 0 0 0 0 - - 0.0
17/07:50pm 8.0 6.0 -0.2 56 3.3 CALM 0 2 0 1 - - 0.0
17/07:40pm 8.3 6.2 -1.1 51 3.7 CALM 0 2 0 1 - - 0.0
17/07:30pm 8.7 6.5 -1.2 50 3.9 CALM 0 0 0 0 - - 0.0
17/07:20pm 9.3 7.2 -0.6 50 4.0 CALM 0 0 0 0 - - 0.0
17/07:10pm 9.5 7.3 -1.3 47 4.3 CALM 0 2 0 1 - - 0.0
17/07:00pm 9.9 7.8 -0.7 47 4.3 CALM 0 0 0 0 - - 0.0
17/06:50pm 10.5 8.4 -0.7 46 4.5 CALM 0 0 0 0 - - 0.0
17/06:40pm 11.1 9.0 -0.6 44 4.8 CALM 0 0 0 0 - - 0.0
17/06:30pm 12.2 10.1 -1.1 39 5.4 CALM 0 2 0 1 - - 0.0
17/06:20pm 13.1 10.3 -3.2 32 6.4 WSW 2 4 1 2 - - 0.0
17/06:10pm 13.9 10.6 -4.2 28 7.0 SW 4 4 2 2 - - 0.0
17/06:00pm 14.2 10.9 -4.5 27 7.2 SW 4 6 2 3 - - 0.0
17/05:50pm 14.6 11.0 -3.6 28 7.2 SW 6 7 3 4 - - 0.0
17/05:40pm 15.3 11.7 -4.0 26 7.6 SW 6 6 3 3 - - 0.0
17/05:30pm 15.9 12.2 -4.4 24 8.0 SW 6 6 3 3 - - 0.0
17/05:20pm 16.6 12.9 -5.0 22 8.5 SW 6 6 3 3 - - 0.0
17/05:10pm 17.1 13.3 -5.2 21 8.7 SW 6 7 3 4 - - 0.0
17/05:00pm 17.8 13.8 -5.5 20 9.1 SW 7 7 4 4 - - 0.0
17/04:50pm 18.6 14.6 -5.4 19 9.5 WSW 7 9 4 5 - - 0.0
17/04:40pm 19.5 15.8 -4.9 19 9.9 WSW 6 7 3 4 - - 0.0
17/04:30pm 19.9 16.1 -5.8 17 10.2 WSW 6 7 3 4 - - 0.0
17/04:20pm 20.0 16.1 -6.4 16 10.4 SW 6 9 3 5 - - 0.0
17/04:10pm 20.1 16.3 -5.9 17 10.4 SSW 6 9 3 5 - - 0.0
17/04:00pm 20.3 16.5 -6.0 16 10.5 SSW 6 9 3 5 - - 0.0
17/03:50pm 20.3 16.8 -6.4 16 10.6 SSW 4 7 2 4 - - 0.0
17/03:40pm 20.4 16.5 -7.0 15 10.7 SSW 6 9 3 5 - - 0.0
17/03:30pm 20.9 17.3 -6.9 15 11.0 WSW 4 9 2 5 - - 0.0
17/03:20pm 20.8 17.7 -6.0 16 10.7 SW 2 4 1 2 - - 0.0
17/03:10pm 20.4 16.3 -6.4 16 10.6 WSW 7 11 4 6 - - 0.0
17/03:00pm 20.4 16.3 -6.3 16 10.6 SW 7 9 4 5 - - 0.0
17/02:50pm 20.3 16.2 -6.3 16 10.5 SW 7 11 4 6 - - 0.0
17/02:40pm 20.5 16.6 -6.1 16 10.6 W 6 7 3 4 - - 0.0
17/02:30pm 20.2 15.8 -6.2 16 10.5 W 9 11 5 6 - - 0.0
17/02:20pm 20.2 16.2 -5.9 16 10.4 WSW 7 11 4 6 - - 0.0
17/02:10pm 20.0 15.9 -7.0 15 10.5 SW 7 11 4 6 - - 0.0
17/02:00pm 19.9 16.1 -5.6 17 10.2 WSW 6 11 3 6 - - 0.0
17/01:50pm 19.9 16.1 -5.4 17 10.2 W 6 13 3 7 - - 0.0
17/01:40pm 19.6 15.6 -5.4 18 10.0 WSW 7 9 4 5 - - 0.0
17/01:30pm 19.4 15.6 -5.1 18 9.9 WSW 6 9 3 5 - - 0.0
17/01:20pm 19.2 15.2 -5.2 18 9.8 SW 7 9 4 5 - - 0.0
17/01:10pm 19.2 15.2 -5.5 18 9.8 WSW 7 9 4 5 - - 0.0
17/01:00pm 19.1 15.4 -4.4 20 9.6 WNW 6 7 3 4 - - 0.0
17/12:50pm 19.0 15.7 -4.2 20 9.5 NW 4 6 2 3 - - 0.0
17/12:40pm 18.8 15.5 -4.2 20 9.4 WNW 4 7 2 4 - - 0.0
17/12:30pm 18.6 15.3 -4.5 20 9.3 W 4 6 2 3 - - 0.0
17/12:20pm 18.4 14.7 -4.8 20 9.3 WNW 6 9 3 5 - - 0.0
17/12:10pm 17.9 14.2 -4.9 21 9.1 W 6 7 3 4 - - 0.0
17/12:00pm 17.6 14.3 -4.4 22 8.8 S 4 6 2 3 - - 0.0
17/11:50am 17.1 13.9 -3.5 24 8.4 W 4 6 2 3 - - 0.0
17/11:40am 16.8 13.6 -3.8 24 8.3 WSW 4 6 2 3 - - 0.0
17/11:30am 16.5 13.2 -4.1 24 8.2 SE 4 7 2 4 - - 0.0
17/11:20am 15.8 12.7 -2.4 28 7.5 S 4 6 2 3 - - 0.0
17/11:10am 15.1 12.0 -2.4 30 7.1 ESE 4 6 2 3 - - 0.0
17/11:00am 14.6 11.5 -2.3 31 6.9 E 4 6 2 3 - - 0.0
17/10:50am 14.3 11.5 -3.1 30 6.9 ESE 2 6 1 3 - - 0.0
17/10:40am 13.7 10.6 -2.5 32 6.5 SE 4 6 2 3 - - 0.0
17/10:30am 13.4 10.2 -3.3 31 6.6 E 4 6 2 3 - - 0.0
17/10:20am 13.1 10.5 -1.7 36 6.0 E 2 6 1 3 - - 0.0
17/10:10am 12.2 9.7 -1.2 39 5.4 E 2 6 1 3 - - 0.0
17/10:00am 11.7 9.0 -2.3 37 5.5 NE 2 4 1 2 - - 0.0
17/09:50am 10.5 7.5 -2.0 41 4.9 NE 4 6 2 3 - - 0.0
17/09:40am 9.5 6.5 -1.6 46 4.3 ENE 4 6 2 3 - - 0.0
17/09:30am 8.6 5.6 -1.8 48 4.0 E 4 6 2 3 - - 0.0
17/09:20am 7.7 5.2 -0.8 55 3.3 E 2 6 1 3 - - 0.0
17/09:10am 6.9 4.1 -0.4 59 2.9 E 4 6 2 3 - - 0.0
17/09:00am 6.0 3.0 -2.1 56 3.0 ENE 4 6 2 3 - - 0.0
17/08:50am 5.1 1.7 -2.0 60 2.6 E 6 6 3 3 - - 0.0
17/08:40am 4.3 0.8 -2.5 61 2.5 E 6 7 3 4 - - 0.0
17/08:30am 3.5 0.4 -2.3 66 2.1 E 4 6 2 3 - - 0.0
17/08:20am 2.7 -0.4 -2.8 67 1.9 ENE 4 6 2 3 - - 0.0
17/08:00am 1.0 -2.2 -3.1 74 1.5 ENE 4 6 2 3 - - 0.0
17/07:50am 0.2 -3.0 -3.4 77 1.2 ENE 4 6 2 3 - - 0.0
17/07:40am -0.4 -4.0 -3.6 79 1.1 ENE 6 6 3 3 - - 0.0
17/07:30am -1.0 -4.6 -3.4 84 0.8 E 6 6 3 3 - - 0.0
17/07:20am -1.7 -4.9 -3.7 86 0.6 E 4 4 2 2 - - 0.0
17/07:10am -2.0 -5.2 -3.9 87 0.5 E 4 4 2 2 - - 0.0
17/07:00am -2.1 -5.4 -4.1 86 0.6 E 4 4 2 2 - - 0.0
17/06:50am -2.3 -5.6 -4.1 87 0.5 ENE 4 4 2 2 - - 0.0
17/06:40am -2.6 -5.9 -4.2 89 0.4 ENE 4 4 2 2 - - 0.0
17/06:30am -2.7 -6.0 -4.4 88 0.4 NE 4 4 2 2 - - 0.0
17/06:20am -2.5 -5.0 -4.1 89 0.4 CALM 0 2 0 1 - - 0.0
17/06:10am -2.3 -4.8 -3.9 89 0.4 CALM 0 2 0 1 - - 0.0
17/06:00am -2.1 -4.9 -3.7 89 0.4 NE 2 2 1 1 - - 0.0
17/05:50am -2.0 -4.5 -3.6 89 0.4 CALM 0 0 0 0 - - 0.0
17/05:40am -2.1 -4.6 -4.1 86 0.6 CALM 0 0 0 0 - - 0.0
17/05:30am -2.1 -4.6 -4.1 86 0.6 CALM 0 0 0 0 - - 0.0
17/05:20am -2.0 -4.5 -4.0 86 0.6 CALM 0 0 0 0 - - 0.0
17/05:10am -2.0 -4.5 -4.0 86 0.6 CALM 0 0 0 0 - - 0.0
17/05:00am -1.9 -4.8 -4.0 85 0.6 N 2 4 1 2 - - 0.0
17/04:50am -1.8 -5.0 -3.6 87 0.5 N 4 4 2 2 - - 0.0
17/04:40am -1.7 -4.5 -3.4 88 0.5 N 2 4 1 2 - - 0.0
17/04:30am -1.7 -4.5 -3.4 88 0.5 NE 2 4 1 2 - - 0.0
17/04:20am -1.7 -4.5 -3.6 87 0.6 NNE 2 4 1 2 - - 0.0
17/04:10am -1.7 -4.6 -3.9 85 0.6 NNE 2 4 1 2 - - 0.0
17/04:00am -1.7 -5.0 -4.1 84 0.7 N 4 6 2 3 - - 0.0
17/03:50am -1.5 -4.3 -3.6 86 0.6 N 2 4 1 2 - - 0.0
17/03:40am -1.2 -4.0 -3.1 87 0.6 NNW 2 4 1 2 - - 0.0
17/03:30am -0.9 -3.3 -2.8 87 0.6 CALM 0 0 0 0 - - 0.0
17/03:20am -0.6 -3.3 -2.3 88 0.6 ENE 2 4 1 2 - - 0.0
17/03:00am -0.2 -3.3 -2.7 83 0.8 E 4 4 2 2 - - 0.0
17/02:50am -0.4 -3.9 -2.7 84 0.8 E 6 6 3 3 - - 0.0
17/02:40am 0.0 -3.4 -2.3 84 0.8 E 6 6 3 3 - - 0.0
17/02:30am 0.1 -2.9 -2.2 84 0.8 E 4 6 2 3 - - 0.0
17/02:20am -0.1 -3.2 -2.8 82 0.9 ENE 4 4 2 2 - - 0.0
17/02:10am -0.4 -3.1 -2.7 84 0.8 ENE 2 4 1 2 - - 0.0
17/02:00am -0.4 -2.8 -2.9 83 0.8 CALM 0 2 0 1 - - 0.0
17/01:50am 0.1 -2.6 -2.7 81 1.0 NE 2 4 1 2 - - 0.0
17/01:40am 0.3 -3.2 -2.5 81 1.0 ENE 6 6 3 3 - - 0.0
17/01:30am 0.4 -2.6 -2.1 83 0.9 ENE 4 6 2 3 - - 0.0
17/01:20am 0.5 -2.5 -2.1 83 0.9 ENE 4 4 2 2 - - 0.0
17/01:10am 0.6 -2.4 -1.6 85 0.8 E 4 6 2 3 - - 0.0
17/01:00am 0.5 -2.5 -2.0 83 0.9 E 4 4 2 2 - - 0.0
17/12:50am 0.4 -2.3 -2.4 81 1.0 E 2 4 1 2 - - 0.0
17/12:40am 0.4 -1.9 -2.4 81 1.0 CALM 0 2 0 1 - - 0.0
17/12:30am 0.6 -2.1 -2.3 81 1.0 NE 2 2 1 1 - - 0.0
17/12:20am 0.8 -1.5 -2.1 81 1.1 CALM 0 2 0 1 - - 0.0
17/12:10am 0.8 -1.4 -1.9 82 1.0 CALM 0 2 0 1 - - 0.0
17/12:00am 1.0 -1.2 -1.8 81 1.0 CALM 0 2 0 1 - - 0.0
 
Date/Time
EST
Temp
°C
App
Temp
°C
Dew
Point
°C
Rel
Hum
%
Delta-T
°C
Wind Press
QNH
hPa
Press
MSL
hPa
Rain since
9am
mm
Dir  Spd
km/h
Gust
km/h
Spd
kts
Gust
kts
16/11:50pm 1.2 -1.8 -1.8 80 1.1 ENE 4 6 2 3 - - 0.0
16/11:40pm 1.6 -1.0 -1.6 79 1.1 ENE 2 4 1 2 - - 0.0
16/11:30pm 1.7 -1.3 -1.5 79 1.1 E 4 4 2 2 - - 0.0
16/11:20pm 1.8 -1.5 -1.3 80 1.1 E 6 6 3 3 - - 0.0
16/11:10pm 2.1 -0.8 -1.2 79 1.2 E 4 6 2 3 - - 0.0
16/11:00pm 2.3 -1.0 -1.6 75 1.4 E 6 7 3 4 - - 0.0
16/10:50pm 2.4 -0.6 -1.5 75 1.4 ENE 4 6 2 3 - - 0.0
16/10:40pm 2.5 -0.5 -1.9 73 1.6 ENE 4 6 2 3 - - 0.0
16/10:30pm 2.8 -0.5 -1.6 73 1.6 ENE 6 6 3 3 - - 0.0
16/10:20pm 2.7 0.2 -1.3 75 1.5 NE 2 6 1 3 - - 0.0
16/10:10pm 3.2 1.1 -1.1 73 1.6 CALM 0 2 0 1 - - 0.0
16/10:00pm 3.4 1.3 -1.0 73 1.6 CALM 0 2 0 1 - - 0.0
16/09:50pm 3.7 1.6 -1.0 71 1.7 CALM 0 0 0 0 - - 0.0
16/09:40pm 4.5 2.3 -1.3 66 2.2 CALM 0 2 0 1 - - 0.0
16/09:30pm 4.7 2.5 -1.7 63 2.4 CALM 0 2 0 1 - - 0.0
16/09:20pm 4.7 2.6 -0.5 69 2.0 CALM 0 0 0 0 - - 0.0
16/09:10pm 4.8 1.9 -0.9 66 2.2 ESE 4 6 2 3 - - 0.0
16/09:00pm 5.0 1.8 -0.6 67 2.1 E 6 7 3 4 - - 0.0
16/08:50pm 5.3 2.4 -1.0 64 2.4 E 4 4 2 2 - - 0.0
16/08:40pm 5.6 3.1 -0.8 63 2.4 E 2 6 1 3 - - 0.0
16/08:30pm 5.9 3.7 -1.3 60 2.7 CALM 0 0 0 0 - - 0.0
16/08:20pm 6.4 4.4 -0.1 63 2.6 CALM 0 0 0 0 - - 0.0
16/08:10pm 8.1 5.0 -3.0 45 4.1 W 4 4 2 2 - - 0.0
16/08:00pm 8.4 5.3 -2.6 46 4.2 W 4 6 2 3 - - 0.0
16/07:50pm 8.9 6.2 -2.4 45 4.3 WSW 2 4 1 2 - - 0.0
16/07:40pm 9.5 6.4 -3.0 41 4.7 W 4 6 2 3 - - 0.0
16/07:30pm 9.2 6.4 -3.4 41 4.7 NW 2 4 1 2 - - 0.0
16/07:20pm 9.5 7.2 -2.7 42 4.7 CALM 0 2 0 1 - - 0.0
16/07:00pm 10.3 8.0 -2.6 40 5.0 CALM 0 0 0 0 - - 0.0
16/06:50pm 11.2 8.1 -2.4 38 5.3 WNW 4 4 2 2 - - 0.0
16/06:40pm 12.1 9.0 -3.0 35 5.9 WNW 4 6 2 3 - - 0.0
16/06:30pm 12.4 9.2 -3.7 32 6.2 W 4 6 2 3 - - 0.0
16/06:20pm 12.6 9.0 -3.5 32 6.2 W 6 7 3 4 - - 0.0
16/06:10pm 12.7 9.1 -3.4 32 6.3 W 6 6 3 3 - - 0.0
16/06:00pm 13.1 9.4 -3.2 32 6.4 WSW 7 7 4 4 - - 0.0
16/05:50pm 13.4 9.6 -3.6 30 6.6 WSW 7 9 4 5 - - 0.0
16/05:40pm 13.6 9.8 -3.5 30 6.7 WSW 7 9 4 5 - - 0.0
16/05:30pm 13.8 9.6 -3.5 30 6.8 WSW 9 11 5 6 - - 0.0
16/05:20pm 14.5 10.0 -3.3 29 7.1 WSW 11 15 6 8 - - 0.0
16/05:10pm 15.0 10.5 -3.4 28 7.3 WSW 11 15 6 8 - - 0.0
16/05:00pm 15.8 10.5 -3.3 26 7.7 WSW 15 19 8 10 - - 0.0
16/04:50pm 16.3 10.6 -3.5 25 8.0 WSW 17 20 9 11 - - 0.0
16/04:40pm 17.0 10.7 -3.6 24 8.3 SW 20 26 11 14 - - 0.0
16/04:30pm 17.5 11.2 -3.7 23 8.6 WSW 20 24 11 13 - - 0.0
16/04:20pm 18.0 11.8 -3.5 23 8.8 SW 20 24 11 13 - - 0.0
16/04:00pm 18.5 12.5 -3.4 22 9.0 WSW 19 20 10 11 - - 0.0
16/03:50pm 18.8 12.7 -3.9 21 9.3 WSW 19 24 10 13 - - 0.0
16/03:40pm 19.0 12.3 -4.3 20 9.5 WSW 22 24 12 13 - - 0.0
16/03:30pm 19.3 13.1 -3.3 21 9.4 WSW 20 26 11 14 - - 0.0
16/03:20pm 19.4 13.4 -2.7 22 9.3 WSW 19 24 10 13 - - 0.0
16/03:10pm 19.5 13.3 -3.5 21 9.6 WSW 20 24 11 13 - - 0.0
16/03:00pm 19.5 13.9 -3.0 21 9.5 W 17 22 9 12 - - 0.0
16/02:50pm 19.7 13.5 -2.9 21 9.5 WSW 20 26 11 14 - - 0.0
16/02:40pm 19.9 14.3 -2.6 21 9.6 W 17 20 9 11 - - 0.0
16/02:30pm 19.9 14.3 -2.8 21 9.6 W 17 22 9 12 - - 0.0
16/02:20pm 19.3 13.4 -2.4 23 9.2 W 19 24 10 13 - - 0.0
16/02:10pm 19.2 13.6 -2.5 23 9.2 W 17 20 9 11 - - 0.0
16/02:00pm 19.1 12.6 -2.7 22 9.2 W 22 26 12 14 - - 0.0
16/01:50pm 19.4 13.2 -2.8 22 9.4 WNW 20 26 11 14 - - 0.0
16/01:40pm 19.4 13.5 -2.6 22 9.3 WNW 19 20 10 11 - - 0.0
16/01:30pm 19.4 13.9 -2.2 23 9.2 WNW 17 20 9 11 - - 0.0
16/01:20pm 19.3 13.4 -2.5 22 9.2 WNW 19 20 10 11 - - 0.0
16/01:10pm 19.0 13.1 -2.2 23 9.0 WNW 19 22 10 12 - - 0.0
16/01:00pm 18.4 12.4 -1.8 25 8.6 WNW 20 28 11 15 - - 0.0
16/12:50pm 18.7 12.7 -1.5 25 8.7 WNW 20 28 11 15 - - 0.0
16/12:40pm 18.8 12.9 -1.1 26 8.6 WNW 20 24 11 13 - - 0.0
16/12:30pm 18.6 12.3 -1.1 26 8.5 WNW 22 28 12 15 - - 0.0
16/12:20pm 18.5 12.2 -0.7 27 8.4 WNW 22 30 12 16 - - 0.0
16/12:10pm 18.6 12.2 -1.4 26 8.6 NW 22 30 12 16 - - 0.0
16/12:00pm 18.3 11.9 -1.4 26 8.5 NW 22 32 12 17 - - 0.0
16/11:50am 18.2 12.3 -0.8 27 8.3 WNW 20 26 11 14 - - 0.0
16/11:40am 18.5 13.1 -1.1 26 8.5 NW 17 26 9 14 - - 0.0
16/11:30am 17.4 12.6 0.1 31 7.6 WNW 15 20 8 11 - - 0.0
16/11:20am 17.6 13.5 -0.5 29 7.9 WNW 11 17 6 9 - - 0.0
16/11:10am 16.8 13.6 -0.2 31 7.4 W 6 7 3 4 - - 0.0
16/11:00am 15.9 13.1 -0.7 32 7.1 W 4 7 2 4 - - 0.0
16/10:50am 15.2 12.4 -0.7 33 6.7 W 4 6 2 3 - - 0.0
16/10:40am 14.8 11.9 -0.9 34 6.6 WSW 4 7 2 4 - - 0.0
16/10:30am 14.5 11.6 -1.1 34 6.5 WSW 4 6 2 3 - - 0.0
16/10:20am 14.2 12.2 -0.2 37 6.1 CALM 0 2 0 1 - - 0.0
16/10:10am 13.6 11.6 -0.3 38 5.8 CALM 0 2 0 1 - - 0.0
16/10:00am 12.9 10.5 -0.2 40 5.5 E 2 6 1 3 - - 0.0
16/09:50am 12.2 9.9 0.5 44 4.9 ESE 2 4 1 2 - - 0.0
16/09:40am 11.9 9.6 0.7 46 4.7 ENE 2 4 1 2 - - 0.0
16/09:30am 11.3 8.6 0.3 46 4.6 NE 4 6 2 3 - - 0.0
16/09:20am 10.6 7.5 0.2 48 4.3 NNE 6 7 3 4 - - 0.0
16/09:10am 9.9 6.9 0.7 53 3.8 NE 6 7 3 4 - - 0.0
16/09:00am 8.3 5.5 2.0 64 2.7 ENE 6 7 3 4 - - 0.0
16/08:50am 6.9 3.8 1.6 69 2.2 E 7 7 4 4 - - 0.0
16/08:40am 5.6 2.5 1.2 73 1.8 E 7 9 4 5 - - 0.0
16/08:30am 4.7 1.6 0.3 73 1.7 ESE 6 7 3 4 - - 0.0
16/08:20am 4.0 0.6 -0.6 72 1.7 E 7 13 4 7 - - 0.0
16/08:10am 3.2 -0.6 -1.0 74 1.6 E 9 11 5 6 - - 0.0
16/08:00am 2.5 -1.0 -1.4 75 1.4 E 7 7 4 4 - - 0.0
16/07:50am 1.6 -2.0 -2.1 76 1.3 E 7 7 4 4 - - 0.0
16/07:40am 1.3 -2.8 -2.8 74 1.5 E 9 9 5 5 - - 0.0
16/07:30am 0.8 -3.0 -3.7 72 1.6 E 7 9 4 5 - - 0.0
16/07:20am -0.2 -4.0 -3.7 77 1.2 E 7 7 4 4 - - 0.0
16/07:10am -0.8 -4.6 -3.9 79 1.0 ENE 7 9 4 5 - - 0.0
16/07:00am -0.7 -4.9 -4.2 77 1.1 ENE 9 9 5 5 - - 0.0
16/06:50am -0.6 -4.9 -4.4 75 1.2 ENE 9 9 5 5 - - 0.0
16/06:40am -0.9 -4.8 -4.4 77 1.1 E 7 9 4 5 - - 0.0
16/06:30am -0.9 -4.8 -4.3 78 1.1 E 7 9 4 5 - - 0.0
16/06:20am -1.0 -5.3 -4.5 77 1.1 E 9 9 5 5 - - 0.0
16/06:10am -1.1 -5.4 -4.6 77 1.1 ENE 9 9 5 5 - - 0.0
16/06:00am -1.2 -5.1 -4.5 78 1.0 ENE 7 9 4 5 - - 0.0
16/05:50am -1.5 -5.4 -4.4 81 0.9 ENE 7 9 4 5 - - 0.0
16/05:40am -1.3 -5.5 -4.2 81 0.9 E 9 11 5 6 - - 0.0
16/05:30am -1.1 -5.4 -4.4 78 1.0 E 9 9 5 5 - - 0.0
16/05:20am -1.3 -5.2 -4.6 78 1.0 E 7 9 4 5 - - 0.0
16/05:10am -1.8 -5.7 -4.2 84 0.7 ENE 7 9 4 5 - - 0.0
16/05:00am -1.0 -4.8 -4.1 79 1.0 E 7 7 4 4 - - 0.0
16/04:50am -0.8 -4.5 -4.1 78 1.0 E 6 7 3 4 - - 0.0
16/04:40am -0.9 -4.1 -3.9 80 0.9 E 4 6 2 3 - - 0.0
16/04:30am -1.1 -4.3 -3.8 82 0.8 ENE 4 6 2 3 - - 0.0
16/04:20am -1.3 -4.5 -3.9 82 0.8 NE 4 7 2 4 - - 0.0
16/04:10am -1.4 -4.7 -4.2 81 0.8 NNE 4 6 2 3 - - 0.0
16/04:00am -1.2 -4.0 -3.7 83 0.8 - 2 2 1 1 - - 0.0
16/03:50am -0.8 -4.0 -3.5 82 0.9 N 4 6 2 3 - - 0.0
16/03:40am -0.3 -3.9 -3.7 78 1.1 NNE 6 6 3 3 - - 0.0
16/03:30am -0.2 -3.4 -3.6 78 1.1 NE 4 6 2 3 - - 0.0
16/03:20am -0.1 -3.7 -3.7 77 1.2 NE 6 6 3 3 - - 0.0
16/03:10am -0.3 -3.9 -3.7 78 1.1 NE 6 6 3 3 - - 0.0
16/03:00am -0.3 -3.9 -3.3 80 1.0 NE 6 6 3 3 - - 0.0
16/02:50am -0.6 -3.8 -3.3 82 0.9 NE 4 6 2 3 - - 0.0
16/02:40am -1.1 -4.6 -3.2 86 0.7 NE 6 7 3 4 - - 0.0
16/02:30am -1.4 -4.2 -3.1 88 0.5 ENE 2 4 1 2 - - 0.0
16/02:20am -1.4 -4.2 -3.4 86 0.6 NE 2 4 1 2 - - 0.0
16/02:10am -1.1 -3.9 -3.4 84 0.7 NE 2 4 1 2 - - 0.0
16/02:00am -0.9 -3.7 -2.9 86 0.6 NE 2 2 1 1 - - 0.0
16/01:50am -0.7 -3.5 -2.9 85 0.7 ENE 2 4 1 2 - - 0.0
16/01:40am -0.5 -4.0 -2.7 85 0.7 ENE 6 9 3 5 - - 0.0
16/01:30am 0.0 -3.4 -2.1 86 0.7 E 6 7 3 4 - - 0.0
16/01:20am 0.3 -2.7 -2.2 83 0.9 E 4 6 2 3 - - 0.0
16/01:00am 0.6 -2.8 -2.2 81 1.0 ESE 6 6 3 3 - - 0.0
16/12:50am 0.6 -2.8 -2.3 81 1.0 ESE 6 6 3 3 - - 0.0
16/12:40am 0.3 -3.1 -2.4 82 1.0 E 6 7 3 4 - - 0.0
16/12:30am 0.2 -2.8 -2.2 84 0.8 E 4 4 2 2 - - 0.0
16/12:20am 0.0 -2.3 -2.6 83 0.9 CALM 0 4 0 2 - - 0.0
16/12:10am 0.0 -2.4 -3.0 80 1.0 CALM 0 2 0 1 - - 0.0
16/12:00am 0.1 -3.0 -2.9 80 1.0 NE 4 4 2 2 - - 0.0
 
Date/Time
EST
Temp
°C
App
Temp
°C
Dew
Point
°C
Rel
Hum
%
Delta-T
°C
Wind Press
QNH
hPa
Press
MSL
hPa
Rain since
9am
mm
Dir  Spd
km/h
Gust
km/h
Spd
kts
Gust
kts
15/11:50pm 0.1 -3.0 -2.8 81 1.0 NNE 4 6 2 3 - - 0.0
15/11:40pm 0.2 -2.5 -2.6 81 1.0 ENE 2 6 1 3 - - 0.0
15/11:30pm 0.3 -2.0 -2.1 84 0.9 CALM 0 2 0 1 - - 0.0
15/11:20pm 0.5 -2.2 -2.1 83 0.9 NE 2 4 1 2 - - 0.0
15/11:00pm 0.9 -1.7 -1.8 82 1.0 NNE 2 4 1 2 - - 0.0
15/10:50pm 1.1 -1.5 -2.0 80 1.1 NE 2 4 1 2 - - 0.0
15/10:40pm 1.0 -1.6 -2.0 80 1.1 ENE 2 4 1 2 - - 0.0
15/10:30pm 1.3 -1.4 -2.5 76 1.4 NE 2 4 1 2 - - 0.0
15/10:20pm 1.6 -0.6 -1.9 77 1.2 CALM 0 2 0 1 - - 0.0
15/10:10pm 1.9 -0.7 -1.9 76 1.4 NNW 2 6 1 3 - - 0.0
15/10:00pm 2.2 0.0 -1.8 75 1.4 CALM 0 4 0 2 - - 0.0
15/09:50pm 2.3 -0.3 -1.8 74 1.5 SSW 2 9 1 5 - - 0.0
15/09:40pm 2.6 0.4 -1.4 75 1.5 CALM 0 2 0 1 - - 0.0
15/09:30pm 2.9 0.8 -1.1 75 1.5 CALM 0 0 0 0 - - 0.0
15/09:20pm 3.2 1.0 -1.4 72 1.7 CALM 0 0 0 0 - - 0.0
15/09:10pm 3.3 1.1 -1.4 71 1.7 CALM 0 0 0 0 - - 0.0
15/09:00pm 3.5 1.3 -1.5 70 1.8 CALM 0 0 0 0 - - 0.0
15/08:50pm 3.7 1.2 -1.2 70 1.8 E 2 2 1 1 - - 0.0
15/08:40pm 3.8 1.6 -1.5 68 1.9 CALM 0 2 0 1 - - 0.0
15/08:30pm 4.0 1.4 -1.5 67 2.0 NNE 2 4 1 2 - - 0.0
15/08:20pm 4.6 2.0 -1.7 63 2.3 N 2 6 1 3 - - 0.0
15/08:10pm 5.0 2.0 -1.6 62 2.5 N 4 7 2 4 - - 0.0
15/08:00pm 5.2 1.9 -1.5 62 2.5 N 6 7 3 4 - - 0.0
15/07:50pm 5.9 3.8 -0.6 63 2.5 CALM 0 0 0 0 - - 0.0
15/07:40pm 6.2 3.7 -1.1 59 2.8 NNW 2 4 1 2 - - 0.0
15/07:30pm 6.1 3.9 -1.5 58 2.9 CALM 0 0 0 0 - - 0.0
15/07:20pm 6.6 4.4 -1.2 57 3.0 CALM 0 2 0 1 - - 0.0
15/07:10pm 7.2 5.0 -1.4 54 3.3 CALM 0 0 0 0 - - 0.0
15/07:00pm 8.1 5.9 -1.4 51 3.7 CALM 0 0 0 0 - - 0.0
15/06:50pm 9.0 6.7 -2.7 43 4.4 CALM 0 2 0 1 - - 0.0
15/06:40pm 9.2 6.8 -3.0 42 4.6 CALM 0 0 0 0 - - 0.0
15/06:20pm 9.6 6.7 -4.3 37 5.1 S 2 4 1 2 - - 0.0
15/06:10pm 10.4 7.4 -1.9 42 4.8 S 4 6 2 3 - - 0.0
15/06:00pm 11.4 8.2 -3.8 34 5.8 S 4 6 2 3 - - 0.0
15/05:50pm 12.4 9.1 -4.7 30 6.4 S 4 6 2 3 - - 0.0
15/05:40pm 13.0 9.2 -5.5 27 6.9 SSW 6 6 3 3 - - 0.0
15/05:30pm 13.5 9.6 -4.7 28 6.9 SSW 7 7 4 4 - - 0.0
15/05:20pm 14.0 10.3 -4.6 27 7.1 SSW 6 6 3 3 - - 0.0
15/05:10pm 14.6 10.8 -5.2 25 7.6 S 6 6 3 3 - - 0.0
15/05:00pm 15.2 11.4 -5.2 24 7.8 S 6 7 3 4 - - 0.0
15/04:50pm 15.7 11.9 -5.9 22 8.2 S 6 7 3 4 - - 0.0
15/04:40pm 16.4 12.6 -5.5 22 8.5 SSW 6 6 3 3 - - 0.0
15/04:30pm 16.6 12.6 -6.1 20 8.7 SSW 7 9 4 5 - - 0.0
15/04:20pm 16.8 12.8 -5.9 20 8.7 S 7 11 4 6 - - 0.0
15/04:10pm 17.0 12.6 -6.0 20 8.9 SSW 9 11 5 6 - - 0.0
15/04:00pm 17.0 12.1 -6.6 19 9.0 S 11 13 6 7 - - 0.0
15/03:50pm 17.2 12.4 -6.1 20 9.0 SSW 11 15 6 8 - - 0.0
15/03:40pm 17.5 13.1 -5.9 19 9.1 SW 9 13 5 7 - - 0.0
15/03:30pm 17.5 12.7 -6.0 19 9.1 SSW 11 15 6 8 - - 0.0
15/03:20pm 17.7 13.0 -5.2 20 9.0 SW 11 13 6 7 - - 0.0
15/03:00pm 18.0 14.2 -5.5 19 9.2 WNW 6 9 3 5 - - 0.0
15/02:50pm 18.1 15.4 -6.2 18 9.4 CALM 0 2 0 1 - - 0.0
15/02:40pm 17.8 14.3 -6.8 18 9.4 W 4 9 2 5 - - 0.0
15/02:30pm 17.3 12.5 -6.3 19 9.1 SW 11 15 6 8 - - 0.0
15/02:20pm 17.5 13.5 -6.0 19 9.1 SSW 7 9 4 5 - - 0.0
15/02:10pm 17.5 13.5 -5.5 20 9.0 SW 7 15 4 8 - - 0.0
15/02:00pm 17.3 13.3 -5.2 21 8.8 SW 7 13 4 7 - - 0.0
15/01:50pm 17.2 13.4 -5.7 20 8.9 S 6 7 3 4 - - 0.0
15/01:40pm 17.0 12.3 -5.4 21 8.7 SW 11 15 6 8 - - 0.0
15/01:30pm 17.5 13.7 -5.3 20 9.0 W 6 13 3 7 - - 0.0
15/01:20pm 16.9 12.9 -5.3 21 8.7 WSW 7 11 4 6 - - 0.0
15/01:10pm 16.9 12.9 -5.2 21 8.6 SW 7 11 4 6 - - 0.0
15/01:00pm 16.7 12.5 -4.3 23 8.4 WSW 9 11 5 6 - - 0.0
15/12:50pm 16.6 12.3 -4.4 23 8.3 SW 9 11 5 6 - - 0.0
15/12:40pm 16.5 13.2 -4.1 24 8.2 SW 4 7 2 4 - - 0.0
15/12:30pm 16.4 12.6 -3.6 25 8.1 WSW 7 11 4 6 - - 0.0
15/12:20pm 16.5 13.0 -3.2 26 8.0 NW 6 11 3 6 - - 0.0
15/12:10pm 16.1 13.3 -3.3 26 7.8 NE 2 6 1 3 - - 0.0
15/12:00pm 15.7 12.5 -3.2 27 7.6 W 4 9 2 5 - - 0.0
15/11:50am 15.6 12.4 -3.2 27 7.6 WSW 4 7 2 4 - - 0.0
15/11:40am 15.0 11.9 -2.7 29 7.2 ESE 4 6 2 3 - - 0.0
15/11:30am 15.0 12.0 -2.2 30 7.0 ENE 4 6 2 3 - - 0.0
15/11:20am 14.7 11.6 -2.3 31 6.9 SE 4 6 2 3 - - 0.0
15/11:10am 14.8 11.8 -2.2 31 6.9 N 4 6 2 3 - - 0.0
15/11:00am 14.2 11.5 -2.1 32 6.6 SE 2 6 1 3 - - 0.0
15/10:50am 13.8 11.7 -1.0 36 6.1 CALM 0 2 0 1 - - 0.0
15/10:40am 12.9 10.7 -1.4 37 5.8 CALM 0 4 0 2 - - 0.0
15/10:30am 12.0 9.6 -0.4 42 5.1 NE 2 4 1 2 - - 0.0
15/10:20am 11.5 9.1 -0.4 44 4.9 NNE 2 4 1 2 - - 0.0
15/10:10am 10.5 8.0 -0.9 45 4.6 E 2 4 1 2 - - 0.0
15/10:00am 9.4 6.5 -0.8 49 4.1 E 4 6 2 3 - - 0.0
15/09:50am 8.6 5.8 -0.4 53 3.6 ENE 4 6 2 3 - - 0.0
15/09:40am 7.7 4.8 -0.8 55 3.3 ENE 4 6 2 3 - - 0.0
15/09:30am 6.9 4.0 -1.0 57 3.1 ENE 4 6 2 3 - - 0.0
15/09:20am 6.3 3.4 -1.1 59 2.8 ENE 4 6 2 3 - - 0.0
15/09:10am 5.6 2.7 -1.2 61 2.6 ENE 4 6 2 3 - - 0.0
15/09:00am 4.6 1.3 -1.3 65 2.2 ENE 6 7 3 4 - - 0.0
15/08:50am 3.8 0.5 -1.4 69 1.9 ENE 6 6 3 3 - - 0.0
15/08:40am 3.0 0.1 -1.0 75 1.5 ENE 4 6 2 3 - - 0.0
15/08:30am 2.0 -1.4 -1.9 75 1.4 ENE 6 6 3 3 - - 0.0
15/08:20am 1.3 -2.2 -2.6 75 1.4 ENE 6 6 3 3 - - 0.0
15/08:10am 0.6 -2.5 -2.9 77 1.2 ENE 4 6 2 3 - - 0.0
15/08:00am 0.1 -3.1 -3.2 78 1.1 ENE 4 6 2 3 - - 0.0
15/07:50am -0.6 -3.4 -3.4 81 0.9 ENE 2 4 1 2 - - 0.0
15/07:40am -1.5 -4.3 -3.5 86 0.6 NE 2 6 1 3 - - 0.0
15/07:30am -2.4 -4.9 -4.0 89 0.4 CALM 0 0 0 0 - - 0.0
15/07:20am -3.3 -5.9 -4.6 91 0.3 CALM 0 2 0 1 - - 0.0
15/07:10am -3.5 -6.5 -4.8 91 0.3 NNE 2 4 1 2 - - 0.0
15/07:00am -3.5 -6.8 -4.7 91 0.2 NNE 4 4 2 2 - - 0.0
15/06:50am -3.5 -6.5 -4.7 91 0.2 NNE 2 2 1 1 - - 0.0
15/06:40am -3.3 -6.2 -4.5 91 0.2 NNE 2 2 1 1 - - 0.0
15/06:30am -3.2 -5.8 -4.6 90 0.3 CALM 0 2 0 1 - - 0.0
15/06:20am -3.1 -5.6 -4.4 91 0.3 CALM 0 2 0 1 - - 0.0
15/06:10am -3.0 -5.5 -4.3 91 0.3 CALM 0 0 0 0 - - 0.0
15/06:00am -3.0 -5.9 -4.2 91 0.3 ENE 2 2 1 1 - - 0.0
15/05:50am -3.1 -5.7 -4.5 90 0.3 CALM 0 2 0 1 - - 0.0
15/05:40am -3.1 -6.0 -4.5 90 0.3 NE 2 2 1 1 - - 0.0

Other Formats:

Comma delimited format used in spreadsheet applications
http://www.bom.gov.au/fwo/IDQ60801/IDQ60801.99122.axf

JavaScript Object Notation format (JSON) in row-major order
http://www.bom.gov.au/fwo/IDQ60801/IDQ60801.99122.json